E.r. Borneo — A8SZ4 — position and weather

sailwx.info

Track history (hours):
 
Tides and Currents Weather Stations Pressure Air Temp Water Temp Dewpoint Dewpoint Depression Visibility Wind Speed Wind Dir Waves Ship Positions

E.r. Borneo

Last reported at 2014-Aug-19 00:28 UTC. Time now 2014-Aug-23 15:27 UTC.
Position N 33°06' W 009°39'.

Length 292 m; draft 9.7 m.

Type: Cargo ship. MMSI: 636091797.

Date/timePositionNaut miles runAvg speedWind from/ knotsBaromVisibWave heightAir tempDewpointWater temp
2014-Aug-19 00:28N 33°06' W 009°39'1313.8
2014-Aug-18 23:33N 33°14' W 009°27'1813.9
2014-Aug-18 22:17N 33°27' W 009°12'1113.9
2014-Aug-18 21:31N 33°35' W 009°05'1314.1
2014-Aug-18 20:33N 33°44' W 008°53'1413.9
2014-Aug-18 19:33N 33°54' W 008°41'  
2014-Aug-11 20:18N 36°31' E 023°19'910.5
2014-Aug-11 19:24N 36°39' E 023°24'910.2
2014-Aug-11 18:33N 36°47' E 023°30'1110.5
2014-Aug-11 17:33N 36°56' E 023°36'3510.6
2014-Aug-11 14:13N 37°26' E 023°59'710.9
2014-Aug-11 13:33N 37°33' E 024°04'2110.8
2014-Aug-11 11:33N 37°48' E 024°23'1010.4
2014-Aug-11 10:33N 37°55' E 024°33'2211.0
2014-Aug-11 08:33N 38°14' E 024°46'1110.6
2014-Aug-11 07:32N 38°24' E 024°52'1010.3
2014-Aug-11 06:33N 38°33' E 024°58'1712.9
2014-Aug-11 05:16N 38°48' E 025°08'810.7
2014-Aug-11 04:33N 38°55' E 025°12'1010.3
2014-Aug-11 03:33N 39°04' E 025°18'1110.8
2014-Aug-11 02:33N 39°13' E 025°25'1110.7
2014-Aug-11 01:32N 39°23' E 025°31'168 5.6
2014-Aug-09 19:24N 40°53' E 028°36'13 9.5
2014-Aug-09 18:03N 40°55' E 028°53'4 7.6
2014-Aug-09 17:31N 40°57' E 028°57'  
Track history (hours):
 
Tides and Currents Weather Stations Pressure Air Temp Water Temp Dewpoint Dewpoint Depression Visibility Wind Speed Wind Dir Waves Ship Positions

E.r. Borneo

Last reported at 2014-Aug-19 00:28 UTC. Time now 2014-Aug-23 15:27 UTC.
Position N 33°06' W 009°39'.

Length 292 m; draft 9.7 m.

Type: Cargo ship. MMSI: 636091797.

Date/timePositionNaut miles runAvg speedWind from/ knotsBaromVisibWave heightAir tempDewpointWater temp
2014-Aug-19 00:28N 33°06' W 009°39'1313.8
2014-Aug-18 23:33N 33°14' W 009°27'1813.9
2014-Aug-18 22:17N 33°27' W 009°12'1113.9
2014-Aug-18 21:31N 33°35' W 009°05'1314.1
2014-Aug-18 20:33N 33°44' W 008°53'1413.9
2014-Aug-18 19:33N 33°54' W 008°41'  
2014-Aug-11 20:18N 36°31' E 023°19'910.5
2014-Aug-11 19:24N 36°39' E 023°24'910.2
2014-Aug-11 18:33N 36°47' E 023°30'1110.5
2014-Aug-11 17:33N 36°56' E 023°36'3510.6
2014-Aug-11 14:13N 37°26' E 023°59'710.9
2014-Aug-11 13:33N 37°33' E 024°04'2110.8
2014-Aug-11 11:33N 37°48' E 024°23'1010.4
2014-Aug-11 10:33N 37°55' E 024°33'2211.0
2014-Aug-11 08:33N 38°14' E 024°46'1110.6
2014-Aug-11 07:32N 38°24' E 024°52'1010.3
2014-Aug-11 06:33N 38°33' E 024°58'1712.9
2014-Aug-11 05:16N 38°48' E 025°08'810.7
2014-Aug-11 04:33N 38°55' E 025°12'1010.3
2014-Aug-11 03:33N 39°04' E 025°18'1110.8
2014-Aug-11 02:33N 39°13' E 025°25'1110.7
2014-Aug-11 01:32N 39°23' E 025°31'168 5.6
2014-Aug-09 19:24N 40°53' E 028°36'13 9.5
2014-Aug-09 18:03N 40°55' E 028°53'4 7.6
2014-Aug-09 17:31N 40°57' E 028°57'  

Dump ship's entire track history